createdAt,value
2022-09-15T00:00:22.692Z,19.13
2022-09-15T00:02:49.862Z,18.73
2022-09-15T00:05:17.303Z,19.17
2022-09-15T00:07:44.392Z,19.57
2022-09-15T00:10:11.565Z,18.40
2022-09-15T00:12:38.664Z,19.03
2022-09-15T00:15:06.415Z,19.30
2022-09-15T00:17:34.832Z,19.83
2022-09-15T00:20:02.091Z,20.40
2022-09-15T00:22:29.189Z,21.17
2022-09-15T00:24:56.249Z,20.80
2022-09-15T00:27:23.352Z,20.80
2022-09-15T00:29:50.416Z,23.93
2022-09-15T00:32:17.531Z,23.57
2022-09-15T00:34:46.006Z,25.80
2022-09-15T00:37:13.086Z,23.20
2022-09-15T00:39:40.180Z,24.27
2022-09-15T00:42:07.467Z,23.60
2022-09-15T00:44:54.855Z,23.10
2022-09-15T00:47:24.068Z,24.97
2022-09-15T00:49:58.415Z,24.30
2022-09-15T00:52:28.430Z,25.17
2022-09-15T00:54:56.766Z,24.27
2022-09-15T00:57:26.873Z,25.23
2022-09-15T00:59:56.317Z,24.70
2022-09-15T01:02:25.006Z,23.27
2022-09-15T01:04:58.126Z,24.20
2022-09-15T01:07:27.948Z,26.40
2022-09-15T01:09:57.577Z,25.60
2022-09-15T01:12:25.299Z,26.43
2022-09-15T01:14:52.437Z,25.63
2022-09-15T01:17:24.534Z,25.00
2022-09-15T01:20:18.777Z,24.27
2022-09-15T01:22:53.529Z,25.67
2022-09-15T01:25:25.896Z,23.80
2022-09-15T01:28:14.025Z,25.83
2022-09-15T01:30:44.173Z,25.10
2022-09-15T01:33:21.237Z,24.73
2022-09-15T01:35:51.824Z,24.40
2022-09-15T01:38:24.414Z,24.07
2022-09-15T01:40:53.486Z,24.60
2022-09-15T01:43:21.919Z,26.00
2022-09-15T01:45:51.244Z,26.70
2022-09-15T01:48:20.593Z,25.03
2022-09-15T01:50:51.822Z,25.43
2022-09-15T01:53:20.649Z,27.67
2022-09-15T01:55:51.634Z,27.30
2022-09-15T01:58:18.766Z,27.10
2022-09-15T02:00:48.386Z,26.80
2022-09-15T02:03:20.678Z,25.23
2022-09-15T02:05:52.553Z,28.27
2022-09-15T02:08:22.407Z,29.20
2022-09-15T02:10:52.960Z,28.50
2022-09-15T02:13:23.033Z,28.07
2022-09-15T02:15:51.520Z,27.10
2022-09-15T02:18:25.666Z,29.50
2022-09-15T02:20:53.519Z,30.30
2022-09-15T02:23:24.233Z,30.40
2022-09-15T02:25:54.360Z,27.80
2022-09-15T02:28:23.450Z,30.70
2022-09-15T02:30:51.407Z,31.17
2022-09-15T02:33:21.791Z,30.97
2022-09-15T02:35:48.999Z,32.47
2022-09-15T02:38:16.133Z,33.30
2022-09-15T02:40:44.186Z,32.90
2022-09-15T02:43:12.138Z,32.50
2022-09-15T02:45:39.325Z,33.23
2022-09-15T02:48:06.552Z,32.23
2022-09-15T02:50:34.970Z,35.27
2022-09-15T02:53:02.082Z,33.63
2022-09-15T02:55:29.354Z,32.20
2022-09-15T02:57:56.482Z,34.83
2022-09-15T03:00:23.706Z,30.97
2022-09-15T03:02:51.605Z,34.30
2022-09-15T03:05:19.901Z,34.90
2022-09-15T03:07:48.497Z,33.93
2022-09-15T03:10:15.669Z,32.13
2022-09-15T03:12:43.662Z,33.63
2022-09-15T03:15:11.725Z,32.67
2022-09-15T03:17:40.198Z,32.73
2022-09-15T03:20:08.182Z,34.80
2022-09-15T03:22:35.283Z,32.00
2022-09-15T03:25:04.527Z,31.50
2022-09-15T03:27:31.763Z,32.43
2022-09-15T03:29:58.947Z,34.30
2022-09-15T03:32:26.257Z,30.60
2022-09-15T03:34:56.441Z,30.10
2022-09-15T03:37:25.547Z,30.07
2022-09-15T03:39:52.745Z,34.53
2022-09-15T03:42:21.322Z,32.10
2022-09-15T03:44:48.443Z,33.37
2022-09-15T03:47:15.608Z,32.23
2022-09-15T03:49:42.852Z,31.10
2022-09-15T03:52:09.942Z,33.40
2022-09-15T03:54:37.045Z,29.23
2022-09-15T03:57:04.328Z,30.40
2022-09-15T03:59:32.786Z,31.57
2022-09-15T04:01:59.931Z,30.80
2022-09-15T04:04:27.218Z,29.80
2022-09-15T04:06:54.304Z,30.30
2022-09-15T04:09:21.432Z,28.00
2022-09-15T04:11:48.631Z,30.10
2022-09-15T04:14:15.733Z,28.73
2022-09-15T04:16:44.194Z,28.80
2022-09-15T04:19:11.301Z,26.83
2022-09-15T04:21:38.413Z,25.70
2022-09-15T04:24:05.532Z,25.80
2022-09-15T04:26:33.579Z,24.93
2022-09-15T04:29:04.310Z,22.80
2022-09-15T04:31:32.231Z,24.30
2022-09-15T04:34:00.966Z,24.67
2022-09-15T04:36:28.695Z,22.73
2022-09-15T04:38:56.003Z,23.30
2022-09-15T04:41:23.787Z,23.37
2022-09-15T04:43:51.254Z,23.33
2022-09-15T04:46:18.878Z,23.77
2022-09-15T04:48:46.471Z,22.90
2022-09-15T04:51:15.807Z,23.23
2022-09-15T04:53:43.079Z,21.80
2022-09-15T04:56:11.204Z,21.47
2022-09-15T04:58:39.006Z,21.03
2022-09-15T05:01:10.630Z,20.97
2022-09-15T05:03:38.196Z,21.90
2022-09-15T05:06:06.095Z,21.90
2022-09-15T05:08:34.580Z,21.00
2022-09-15T05:11:02.070Z,21.23
2022-09-15T05:13:29.181Z,20.73
2022-09-15T05:15:56.368Z,21.30
2022-09-15T05:18:23.459Z,20.87
2022-09-15T05:20:50.553Z,20.23
2022-09-15T05:23:17.655Z,21.83
2022-09-15T05:25:54.448Z,19.87
2022-09-15T05:28:21.578Z,19.47
2022-09-15T05:30:48.668Z,21.30
2022-09-15T05:33:15.807Z,18.90
2022-09-15T05:35:49.941Z,18.87
2022-09-15T05:38:17.054Z,18.87
2022-09-15T05:40:45.509Z,18.37
2022-09-15T05:43:12.624Z,17.87
2022-09-15T05:45:39.728Z,19.90
2022-09-15T05:48:06.804Z,19.23
2022-09-15T05:50:33.920Z,18.00
2022-09-15T05:53:01.014Z,17.93
2022-09-15T05:55:28.123Z,17.60
2022-09-15T05:57:56.628Z,18.33
2022-09-15T06:00:23.887Z,18.80
2022-09-15T06:02:51.014Z,18.77
2022-09-15T06:05:18.172Z,18.90
2022-09-15T06:07:45.282Z,20.03
2022-09-15T06:10:12.434Z,20.27
2022-09-15T06:12:39.523Z,19.70
2022-09-15T06:15:08.614Z,18.07
2022-09-15T06:17:35.715Z,18.23
2022-09-15T06:20:03.083Z,19.53
2022-09-15T06:22:30.193Z,18.77
2022-09-15T06:24:57.319Z,19.60
2022-09-15T06:27:24.494Z,19.63
2022-09-15T06:29:51.625Z,19.77
2022-09-15T06:32:20.040Z,19.47
2022-09-15T06:34:47.125Z,20.00
2022-09-15T06:37:14.239Z,19.87
2022-09-15T06:39:41.342Z,19.20
2022-09-15T06:42:10.312Z,17.67
2022-09-15T06:44:42.029Z,20.23
2022-09-15T06:47:09.151Z,17.43
2022-09-15T06:49:37.605Z,17.87
2022-09-15T06:52:04.717Z,16.57
2022-09-15T06:54:31.846Z,16.90
2022-09-15T06:56:59.015Z,17.93
2022-09-15T06:59:26.104Z,17.30
2022-09-15T07:01:53.468Z,16.27
2022-09-15T07:04:21.081Z,16.17
2022-09-15T07:06:49.913Z,17.47
2022-09-15T07:09:17.263Z,16.97
2022-09-15T07:11:44.347Z,15.60
2022-09-15T07:14:11.697Z,17.60
2022-09-15T07:16:38.939Z,17.03
2022-09-15T07:19:06.101Z,15.33
2022-09-15T07:21:34.073Z,16.40
2022-09-15T07:24:06.984Z,17.13
2022-09-15T07:26:34.575Z,16.80
2022-09-15T07:29:02.655Z,17.77
2022-09-15T07:31:31.359Z,16.07
2022-09-15T07:33:59.127Z,17.90
2022-09-15T07:36:26.294Z,18.43
2022-09-15T07:38:53.588Z,17.70
2022-09-15T07:41:23.155Z,16.00
2022-09-15T07:43:51.065Z,16.80
2022-09-15T07:46:18.737Z,16.93
2022-09-15T07:48:46.089Z,16.20
2022-09-15T07:51:13.372Z,16.60
2022-09-15T07:53:40.505Z,14.97
2022-09-15T07:56:08.115Z,14.93
2022-09-15T07:58:36.582Z,15.33
2022-09-15T08:01:03.949Z,14.87
2022-09-15T08:03:31.144Z,17.23
2022-09-15T08:05:58.677Z,15.70
2022-09-15T08:08:25.847Z,13.80
2022-09-15T08:10:52.961Z,15.17
2022-09-15T08:13:20.183Z,15.13
2022-09-15T08:15:48.880Z,12.80
2022-09-15T08:18:16.123Z,14.70
2022-09-15T08:20:43.667Z,14.83
2022-09-15T08:23:11.282Z,15.17
2022-09-15T08:25:38.715Z,13.70
2022-09-15T08:28:06.120Z,14.60
2022-09-15T08:30:33.233Z,13.70
2022-09-15T08:33:01.714Z,13.40
2022-09-15T08:35:30.025Z,13.27
2022-09-15T08:37:57.135Z,14.23
2022-09-15T08:40:27.092Z,15.50
2022-09-15T08:42:56.221Z,13.67
2022-09-15T08:45:25.063Z,12.60
2022-09-15T08:47:53.391Z,11.67
2022-09-15T08:50:25.227Z,11.63
2022-09-15T08:52:53.703Z,13.20
2022-09-15T08:55:23.773Z,13.67
2022-09-15T08:57:53.058Z,12.80
2022-09-15T09:00:20.310Z,11.90
2022-09-15T09:02:55.291Z,11.50
2022-09-15T09:05:30.697Z,10.57
2022-09-15T09:08:07.881Z,11.70
2022-09-15T09:10:40.055Z,10.83
2022-09-15T09:13:11.921Z,10.50
2022-09-15T09:15:45.540Z,9.97
2022-09-15T09:18:28.248Z,10.50
2022-09-15T09:21:02.755Z,11.07
2022-09-15T09:23:32.627Z,9.23
2022-09-15T09:26:00.670Z,9.00
2022-09-15T09:28:30.334Z,9.50
2022-09-15T09:30:59.364Z,8.63
2022-09-15T09:33:28.290Z,8.10
2022-09-15T09:35:55.947Z,7.90
2022-09-15T09:38:27.033Z,7.53
2022-09-15T09:40:57.484Z,6.87
2022-09-15T09:43:27.830Z,6.73
2022-09-15T09:45:54.996Z,4.70
2022-09-15T09:48:22.798Z,4.40
2022-09-15T09:50:50.221Z,3.73
2022-09-15T09:53:18.841Z,5.10
2022-09-15T09:55:47.358Z,5.37
2022-09-15T09:58:18.293Z,5.43
2022-09-15T10:00:45.421Z,4.83
2022-09-15T10:03:15.531Z,5.00
2022-09-15T10:05:42.828Z,3.83
2022-09-15T10:08:15.620Z,3.57
2022-09-15T10:10:51.559Z,3.40
2022-09-15T10:13:18.950Z,2.90
2022-09-15T10:15:50.799Z,2.60
2022-09-15T10:18:32.684Z,3.30
2022-09-15T10:21:00.201Z,2.80
2022-09-15T10:23:27.957Z,2.40
2022-09-15T10:25:59.962Z,2.20
2022-09-15T10:28:27.946Z,2.30
2022-09-15T10:30:59.489Z,2.30
2022-09-15T10:33:27.237Z,3.83
2022-09-15T10:35:55.109Z,2.37
2022-09-15T10:38:25.632Z,2.50
2022-09-15T10:40:56.632Z,2.40
2022-09-15T10:43:33.747Z,2.00
2022-09-15T10:46:02.690Z,2.20
2022-09-15T10:48:35.558Z,3.03
2022-09-15T10:51:10.350Z,3.07
2022-09-15T10:53:43.804Z,2.30
2022-09-15T10:56:16.764Z,2.10
2022-09-15T10:58:49.056Z,2.60
2022-09-15T11:01:26.436Z,2.50
2022-09-15T11:04:03.082Z,2.07
2022-09-15T11:06:33.632Z,2.30
2022-09-15T11:09:10.830Z,2.67
2022-09-15T11:11:42.546Z,1.93
2022-09-15T11:14:18.858Z,1.47
2022-09-15T11:16:51.838Z,1.90
2022-09-15T11:19:27.448Z,2.30
2022-09-15T11:21:57.504Z,2.07
2022-09-15T11:24:31.400Z,1.97
2022-09-15T11:27:00.931Z,2.00
2022-09-15T11:29:31.703Z,2.60
2022-09-15T11:34:35.224Z,1.80
2022-09-15T11:37:04.469Z,2.10
2022-09-15T11:39:35.380Z,2.00
2022-09-15T11:42:06.377Z,2.63
2022-09-15T11:44:35.665Z,2.10
2022-09-15T11:47:14.756Z,1.90
2022-09-15T11:49:45.433Z,2.17
2022-09-15T11:52:18.533Z,1.97
2022-09-15T11:54:47.258Z,1.50
2022-09-15T11:57:17.138Z,1.43
2022-09-15T11:59:49.680Z,1.63
2022-09-15T12:02:20.498Z,1.83
2022-09-15T12:04:56.104Z,2.43
2022-09-15T12:07:24.741Z,2.07
2022-09-15T12:09:51.869Z,2.37
2022-09-15T12:12:20.259Z,1.70
2022-09-15T12:14:49.735Z,2.10
2022-09-15T12:17:19.349Z,2.00
2022-09-15T12:19:52.903Z,1.90
2022-09-15T12:22:22.517Z,2.00
2022-09-15T12:24:57.790Z,1.60
2022-09-15T12:27:27.638Z,1.80
2022-09-15T12:29:57.208Z,1.93
2022-09-15T12:32:25.285Z,2.53
2022-09-15T12:34:56.957Z,2.00
2022-09-15T12:37:24.340Z,2.23
2022-09-15T12:39:51.945Z,2.30
2022-09-15T12:42:20.264Z,2.40
2022-09-15T12:44:49.601Z,1.97
2022-09-15T12:47:21.215Z,2.50
2022-09-15T12:49:49.518Z,2.10
2022-09-15T12:52:17.286Z,2.10
2022-09-15T12:54:45.528Z,2.47
2022-09-15T12:57:21.144Z,2.73
2022-09-15T12:59:48.257Z,2.43
2022-09-15T13:02:43.083Z,2.50
2022-09-15T13:05:12.600Z,3.00
2022-09-15T13:07:56.262Z,2.07
2022-09-15T13:10:28.397Z,3.07
2022-09-15T13:13:00.276Z,2.00
2022-09-15T13:15:28.327Z,2.10
2022-09-15T13:17:56.372Z,2.20
2022-09-15T13:20:30.489Z,2.90
2022-09-15T13:22:58.321Z,2.63
2022-09-15T13:25:27.976Z,3.00
2022-09-15T13:27:56.202Z,2.80
2022-09-15T13:30:29.532Z,3.17
2022-09-15T13:32:58.871Z,2.70
2022-09-15T13:35:40.886Z,1.93
2022-09-15T13:38:26.485Z,2.40
2022-09-15T13:41:15.483Z,2.30
2022-09-15T13:43:52.405Z,2.17
2022-09-15T13:46:26.986Z,2.17
2022-09-15T13:49:02.445Z,4.20
2022-09-15T13:51:31.910Z,2.30
2022-09-15T13:54:00.617Z,2.27
2022-09-15T13:56:28.582Z,2.47
2022-09-15T13:59:03.605Z,2.80
2022-09-15T14:01:34.415Z,2.67
2022-09-15T14:04:03.948Z,2.70
2022-09-15T14:06:34.706Z,2.93
2022-09-15T14:09:02.531Z,3.77
2022-09-15T14:11:30.949Z,2.83
2022-09-15T14:13:58.858Z,2.73
2022-09-15T14:16:31.244Z,2.80
2022-09-15T14:18:58.997Z,3.10
2022-09-15T14:21:27.122Z,3.30
2022-09-15T14:23:56.518Z,2.43
2022-09-15T14:26:24.635Z,2.83
2022-09-15T14:28:52.768Z,2.60
2022-09-15T14:31:27.567Z,3.00
2022-09-15T14:33:54.848Z,2.30
2022-09-15T14:36:23.325Z,2.10
2022-09-15T14:39:04.334Z,2.47
2022-09-15T14:41:32.340Z,1.60
2022-09-15T14:43:59.499Z,2.03
2022-09-15T14:46:35.699Z,1.77
2022-09-15T14:49:09.040Z,1.93
2022-09-15T14:51:36.183Z,1.77
2022-09-15T14:54:05.768Z,1.97
2022-09-15T14:56:35.566Z,1.60
2022-09-15T14:59:05.012Z,1.53
2022-09-15T15:01:34.863Z,2.10
2022-09-15T15:04:04.234Z,1.30
2022-09-15T15:06:35.469Z,1.80
2022-09-15T15:09:04.089Z,1.20
2022-09-15T15:11:33.910Z,1.20
2022-09-15T15:14:01.115Z,1.10
2022-09-15T15:16:29.178Z,1.50
2022-09-15T15:18:56.344Z,1.53
2022-09-15T15:21:35.887Z,1.20
2022-09-15T15:24:08.161Z,1.63
2022-09-15T15:26:37.793Z,1.60
2022-09-15T15:29:07.821Z,1.50
2022-09-15T15:31:38.907Z,1.33
2022-09-15T15:34:07.143Z,1.10
2022-09-15T15:36:35.148Z,1.20
2022-09-15T15:39:03.913Z,1.57
2022-09-15T15:41:32.347Z,1.23
2022-09-15T15:44:02.284Z,1.40
2022-09-15T15:46:45.049Z,1.30
2022-09-15T15:49:12.390Z,1.60
2022-09-15T15:51:39.585Z,1.13
2022-09-15T15:54:06.675Z,1.23
2022-09-15T15:56:37.769Z,1.50
2022-09-15T15:59:06.525Z,1.60
2022-09-15T16:01:33.715Z,1.67
2022-09-15T16:04:00.915Z,1.63
2022-09-15T16:06:27.994Z,1.60
2022-09-15T16:08:56.202Z,2.00
2022-09-15T16:11:23.309Z,1.90
2022-09-15T16:13:50.439Z,1.70
2022-09-15T16:16:19.891Z,1.40
2022-09-15T16:18:47.107Z,1.30
2022-09-15T16:21:16.980Z,1.53
2022-09-15T16:23:44.412Z,1.60
2022-09-15T16:26:14.154Z,1.80
2022-09-15T16:28:41.336Z,1.73
2022-09-15T16:31:10.010Z,1.90
2022-09-15T16:33:38.873Z,1.87
2022-09-15T16:36:06.176Z,1.87
2022-09-15T16:38:33.626Z,1.87
2022-09-15T16:41:01.165Z,2.03
2022-09-15T16:43:28.355Z,2.17
2022-09-15T16:45:55.597Z,2.10
2022-09-15T16:48:22.688Z,2.27
2022-09-15T16:51:16.843Z,2.07
2022-09-15T16:53:38.601Z,2.40
2022-09-15T16:56:06.357Z,2.40
2022-09-15T16:58:33.426Z,1.83
2022-09-15T17:01:00.554Z,1.93
2022-09-15T17:03:28.264Z,2.10
2022-09-15T17:05:57.750Z,2.40
2022-09-15T17:08:25.969Z,2.00
2022-09-15T17:10:53.102Z,2.10
2022-09-15T17:13:22.306Z,2.13
2022-09-15T17:15:51.422Z,2.20
2022-09-15T17:18:18.555Z,1.83
2022-09-15T17:20:46.601Z,2.27
2022-09-15T17:23:19.095Z,2.17
2022-09-15T17:25:47.018Z,2.13
2022-09-15T17:28:14.124Z,1.60
2022-09-15T17:30:41.498Z,2.07
2022-09-15T17:33:11.207Z,2.00
2022-09-15T17:35:38.546Z,2.13
2022-09-15T17:38:06.469Z,2.23
2022-09-15T17:40:35.302Z,1.70
2022-09-15T17:43:02.987Z,1.90
2022-09-15T17:45:31.688Z,2.07
2022-09-15T17:47:58.790Z,1.50
2022-09-15T17:50:27.257Z,1.77
2022-09-15T17:52:54.766Z,1.90
2022-09-15T17:55:22.796Z,2.07
2022-09-15T17:57:51.268Z,1.77
2022-09-15T18:00:19.147Z,1.40
2022-09-15T18:02:48.887Z,1.90
2022-09-15T18:05:20.698Z,1.40
2022-09-15T18:07:48.109Z,1.60
2022-09-15T18:10:15.827Z,1.40
2022-09-15T18:12:46.841Z,1.53
2022-09-15T18:15:18.488Z,1.53
2022-09-15T18:17:45.570Z,1.00
2022-09-15T18:20:16.160Z,1.60
2022-09-15T18:22:43.712Z,1.40
2022-09-15T18:25:18.694Z,2.20
2022-09-15T18:27:46.058Z,1.60
2022-09-15T18:30:13.385Z,1.60
2022-09-15T18:32:41.801Z,1.50
2022-09-15T18:35:09.187Z,1.57
2022-09-15T18:37:36.598Z,1.90
2022-09-15T18:40:04.349Z,1.63
2022-09-15T18:42:32.054Z,1.60
2022-09-15T18:44:59.256Z,1.73
2022-09-15T18:47:26.364Z,1.90
2022-09-15T18:49:54.927Z,1.77
2022-09-15T18:52:22.059Z,1.73
2022-09-15T18:54:49.142Z,1.90
2022-09-15T18:57:16.251Z,1.30
2022-09-15T18:59:43.365Z,1.37
2022-09-15T19:02:10.765Z,1.53
2022-09-15T19:04:40.618Z,1.60
2022-09-15T19:07:09.336Z,1.50
2022-09-15T19:09:36.682Z,2.30
2022-09-15T19:12:04.012Z,1.50
2022-09-15T19:14:31.186Z,1.70
2022-09-15T19:16:58.710Z,1.57
2022-09-15T19:19:25.957Z,2.10
2022-09-15T19:21:53.054Z,2.23
2022-09-15T19:24:21.495Z,1.80
2022-09-15T19:26:48.601Z,1.40
2022-09-15T19:29:15.723Z,1.60
2022-09-15T19:31:42.832Z,2.17
2022-09-15T19:34:10.232Z,1.93
2022-09-15T19:36:37.337Z,1.77
2022-09-15T19:39:04.481Z,1.53
2022-09-15T19:41:32.901Z,2.07
2022-09-15T19:44:01.631Z,2.03
2022-09-15T19:46:28.789Z,1.90
2022-09-15T19:48:56.019Z,1.80
2022-09-15T19:51:23.273Z,1.70
2022-09-15T19:53:53.357Z,2.10
2022-09-15T19:56:21.474Z,1.70
2022-09-15T19:58:50.168Z,1.77
2022-09-15T20:01:17.319Z,1.90
2022-09-15T20:03:44.672Z,1.80
2022-09-15T20:06:12.139Z,1.47
2022-09-15T20:08:39.349Z,1.80
2022-09-15T20:11:07.063Z,1.90
2022-09-15T20:13:34.194Z,1.53
2022-09-15T20:16:03.668Z,2.00
2022-09-15T20:18:30.776Z,1.47
2022-09-15T20:20:57.909Z,1.70
2022-09-15T20:23:25.003Z,1.90
2022-09-15T20:25:55.514Z,1.70
2022-09-15T20:28:22.640Z,1.77
2022-09-15T20:30:58.509Z,1.60
2022-09-15T20:33:27.043Z,1.90
2022-09-15T20:35:54.417Z,1.80
2022-09-15T20:38:21.650Z,1.60
2022-09-15T20:40:53.395Z,2.20
2022-09-15T20:43:20.537Z,1.87
2022-09-15T20:45:54.793Z,1.77
2022-09-15T20:48:21.902Z,1.70
2022-09-15T20:50:50.353Z,1.50
2022-09-15T20:53:17.464Z,1.97
2022-09-15T20:55:49.012Z,1.80
2022-09-15T20:58:16.110Z,1.60
2022-09-15T21:00:43.197Z,1.73
2022-09-15T21:03:10.295Z,2.40
2022-09-15T21:05:37.379Z,1.73
2022-09-15T21:08:05.825Z,2.07
2022-09-15T21:10:32.966Z,2.00
2022-09-15T21:13:00.052Z,1.70
2022-09-15T21:15:27.881Z,1.77
2022-09-15T21:17:54.953Z,1.77
2022-09-15T21:20:22.033Z,1.80
2022-09-15T21:22:53.408Z,2.37
2022-09-15T21:25:21.866Z,1.70
2022-09-15T21:27:48.987Z,1.30
2022-09-15T21:30:16.328Z,1.37
2022-09-15T21:32:43.434Z,1.97
2022-09-15T21:35:10.571Z,1.47
2022-09-15T21:37:37.690Z,1.60
2022-09-15T21:40:05.098Z,1.27
2022-09-15T21:42:33.593Z,1.73
2022-09-15T21:45:00.707Z,1.47
2022-09-15T21:47:27.764Z,1.60
2022-09-15T21:49:54.872Z,2.63
2022-09-15T21:52:21.946Z,1.37
2022-09-15T21:54:49.051Z,1.63
2022-09-15T21:57:16.138Z,2.03
2022-09-15T21:59:44.575Z,2.53
2022-09-15T22:02:11.742Z,1.50
2022-09-15T22:04:38.876Z,2.23
2022-09-15T22:07:05.984Z,1.60
2022-09-15T22:09:33.104Z,1.67
2022-09-15T22:12:00.246Z,1.40
2022-09-15T22:14:27.347Z,1.77
2022-09-15T22:16:55.809Z,1.67
2022-09-15T22:19:22.931Z,1.57
2022-09-15T22:21:50.013Z,1.90
2022-09-15T22:24:17.134Z,1.43
2022-09-15T22:26:44.436Z,1.90
2022-09-15T22:29:11.921Z,1.67
2022-09-15T22:31:39.115Z,1.67
2022-09-15T22:34:07.547Z,1.50
2022-09-15T22:36:34.658Z,1.80
2022-09-15T22:39:02.037Z,2.00
2022-09-15T22:41:29.143Z,1.67
2022-09-15T22:43:56.247Z,1.47
2022-09-15T22:46:23.408Z,1.70
2022-09-15T22:48:50.512Z,1.67
2022-09-15T22:51:18.945Z,1.87
2022-09-15T22:53:46.165Z,2.30
2022-09-15T22:56:14.106Z,1.67
2022-09-15T22:58:42.327Z,1.70
2022-09-15T23:02:07.398Z,2.57
2022-09-15T23:04:34.516Z,1.70
2022-09-15T23:07:01.646Z,1.73
2022-09-15T23:09:28.843Z,1.60
2022-09-15T23:11:55.942Z,2.10
2022-09-15T23:14:23.021Z,2.07
2022-09-15T23:16:50.108Z,2.00
2022-09-15T23:19:18.554Z,2.10
2022-09-15T23:21:45.661Z,1.80
2022-09-15T23:24:12.735Z,1.60
2022-09-15T23:26:39.848Z,1.77
2022-09-15T23:29:06.966Z,1.70
2022-09-15T23:31:34.135Z,1.90
2022-09-15T23:34:01.235Z,1.93
2022-09-15T23:36:29.709Z,1.63
2022-09-15T23:38:56.805Z,2.33
2022-09-15T23:41:23.903Z,2.30
2022-09-15T23:43:51.145Z,1.90
2022-09-15T23:46:18.272Z,1.63
2022-09-15T23:48:45.431Z,1.40
2022-09-15T23:51:12.540Z,2.37
2022-09-15T23:53:41.021Z,1.80
2022-09-15T23:56:08.124Z,1.93
2022-09-15T23:58:35.220Z,1.37
